Terminal Aerodrome Forecast
Issued by NWS

Home | Current Version | Previous Version | Text Only | Print | Product List | Glossary Off
Versions: 1 2 3 4 5 6 7 8 9 10 11 12 13 14 15 16 17 18 19 20 21 22 23 24 25 26 27 28 29 30 31 32

616
FTUS43 KLOT 232336
TAFORD
TAF
KORD 232336Z 2400/2506 18007KT P6SM SCT250
     FM240030 12008KT P6SM SCT250
     FM240400 18006KT P6SM SCT250
     FM241600 20009KT P6SM SCT040 BKN250=

USA.gov is the U.S. government's official web portal to all federal, state and local government web resources and services.